Terminal Aerodrome Forecast
Issued by NWS

Home | Current Version | Previous Version | Text Only | Print | Product List | Glossary On
Versions: 1 2 3 4 5 6 7 8 9 10 11 12 13 14 15
235
FTUS41 KBGM 251407 AAA
TAFITH
TAF AMD
KITH 251407Z 2514/2612 22008KT P6SM -SHRA SCT020 OVC060
      TEMPO 2514/2515 3SM TSRA BKN025CB OVC040
     FM251600 24009KT P6SM BKN100
      TEMPO 2518/2521 24015G25KT 3SM TSRA BR BKN025CB
     FM252100 30005KT P6SM BKN250=

USA.gov is the U.S. government's official web portal to all federal, state and local government web resources and services.